Time;durP1;ratioP1;P1;durP2;ratioP2;P2;SDS_P1;SDS_P2;PMS_P1;PMS_P2;Temp;Humidity;BMP_temperature;BMP_pressure;BME280_temperature;BME280_humidity;BME280_pressure;Samples;Min_cycle;Max_cycle;Signal;HPM_P1;HPM_P2
2021/07/09 00:01:10;;;;;;;7.57;5.32;;;19.00;96.60;;;18.53;90.35;101056.03;5009775;28;20414;-76
2021/07/09 00:03:37;;;;;;;9.40;5.20;;;19.00;96.70;;;18.52;90.29;101055.19;5009285;28;20045;-76
2021/07/09 00:06:04;;;;;;;9.02;4.80;;;19.00;96.70;;;18.53;90.43;101056.03;5009350;28;20073;-76
2021/07/09 00:08:32;;;;;;;8.23;5.18;;;19.00;96.80;;;18.51;90.39;101059.00;5009537;28;20687;-76
2021/07/09 00:11:01;;;;;;;9.13;5.82;;;19.00;96.80;;;18.52;90.60;101048.81;5009546;28;20051;-76
2021/07/09 00:13:28;;;;;;;8.60;5.50;;;19.00;96.90;;;18.52;90.58;101052.44;5009642;28;20099;-77
2021/07/09 00:15:55;;;;;;;9.05;5.60;;;19.00;96.90;;;18.51;90.59;101055.41;5009135;28;20540;-76
2021/07/09 00:18:23;;;;;;;8.90;5.43;;;19.00;96.80;;;18.51;90.47;101052.66;5009509;28;20542;-76
2021/07/09 00:20:50;;;;;;;8.90;5.07;;;19.00;96.90;;;18.51;90.33;101050.72;5009271;28;20548;-76
2021/07/09 00:23:17;;;;;;;7.40;5.07;;;19.00;96.90;;;18.52;90.27;101054.31;4991459;28;20045;-76
2021/07/09 00:25:45;;;;;;;10.18;6.00;;;19.00;96.90;;;18.51;90.50;101052.66;5009134;28;20449;-76
2021/07/09 00:28:13;;;;;;;8.23;5.47;;;19.00;96.90;;;18.50;90.61;101051.78;5008950;28;20120;-76
2021/07/09 00:30:41;;;;;;;8.07;5.85;;;19.00;97.00;;;18.50;90.50;101048.19;5009859;28;20048;-76
2021/07/09 00:33:08;;;;;;;10.68;6.07;;;19.00;97.00;;;18.49;90.60;101043.78;5008839;28;20119;-76
2021/07/09 00:35:35;;;;;;;9.05;5.68;;;19.00;97.10;;;18.49;90.55;101044.59;5009243;28;20049;-76
2021/07/09 00:38:02;;;;;;;9.48;6.88;;;19.00;97.10;;;18.49;90.83;101044.59;5008494;28;20619;-76
2021/07/09 00:40:30;;;;;;;10.88;6.47;;;19.00;97.10;;;18.48;90.85;101042.06;5009052;28;20120;-77
2021/07/09 00:42:57;;;;;;;14.02;6.80;;;19.00;97.20;;;18.46;90.98;101039.53;5008731;28;20045;-76
2021/07/09 00:45:25;;;;;;;10.02;7.40;;;18.90;97.20;;;18.46;90.87;101039.53;5009150;28;20132;-76
2021/07/09 00:47:53;;;;;;;11.73;6.57;;;18.90;97.20;;;18.44;90.91;101035.31;5008760;28;20103;-76
2021/07/09 00:50:20;;;;;;;11.05;6.35;;;18.90;97.30;;;18.46;90.98;101045.03;5008816;28;20086;-75
2021/07/09 00:52:48;;;;;;;10.63;6.45;;;18.90;97.20;;;18.45;90.86;101039.75;5009049;28;20045;-76
2021/07/09 00:55:16;;;;;;;15.63;6.90;;;19.00;97.30;;;18.46;90.79;101033.19;5008790;28;20046;-76
2021/07/09 00:57:49;;;;;;;8.90;6.30;;;19.00;97.30;;;18.46;90.77;101041.44;5008693;28;20426;-76
2021/07/09 01:00:19;;;;;;;10.35;7.18;;;18.90;97.30;;;18.45;90.77;101031.47;5008691;28;20081;-76
2021/07/09 01:02:49;;;;;;;9.50;6.97;;;18.90;97.20;;;18.44;90.80;101030.63;5008800;28;20045;-76
2021/07/09 01:05:18;;;;;;;14.45;7.32;;;19.00;97.20;;;18.44;90.76;101029.81;5008070;28;20141;-77
2021/07/09 01:07:46;;;;;;;9.85;7.40;;;18.90;97.30;;;18.43;91.15;101025.34;5008361;28;20069;-77
2021/07/09 01:10:16;;;;;;;12.55;8.40;;;18.90;97.30;;;18.41;90.81;101022.84;5008818;28;20458;-77
2021/07/09 01:12:44;;;;;;;16.85;9.60;;;18.90;97.40;;;18.41;90.58;101020.09;5008572;28;20049;-77
2021/07/09 01:15:16;;;;;;;15.27;9.25;;;18.90;97.40;;;18.40;90.78;101018.38;5008732;28;20050;-77
2021/07/09 01:17:44;;;;;;;13.20;9.13;;;18.90;97.30;;;18.42;91.06;101020.91;5008188;28;20318;-77
2021/07/09 01:20:16;;;;;;;14.65;9.15;;;18.90;97.30;;;18.40;91.02;101023.06;5008432;28;20100;-77
2021/07/09 01:22:46;;;;;;;12.75;9.30;;;18.90;97.30;;;18.42;90.95;101021.75;5008367;28;20124;-77
2021/07/09 01:25:17;;;;;;;15.68;9.63;;;18.90;97.40;;;18.40;90.90;101017.53;5008632;28;20750;-77
2021/07/09 01:27:47;;;;;;;14.57;9.18;;;18.90;97.40;;;18.40;91.10;101017.53;5008119;28;20506;-77
2021/07/09 01:30:19;;;;;;;14.03;9.40;;;18.90;97.50;;;18.41;90.80;101019.22;5008221;28;20136;-77
2021/07/09 01:32:47;;;;;;;15.27;9.85;;;18.90;97.40;;;18.40;90.72;101012.03;4990864;28;20305;-77
2021/07/09 01:35:16;;;;;;;14.88;10.07;;;18.90;97.40;;;18.40;90.83;101023.06;4990383;28;20068;-77
2021/07/09 01:37:47;;;;;;;17.27;9.93;;;18.90;97.40;;;18.40;90.97;101023.06;5008154;28;20112;-77
2021/07/09 01:40:17;;;;;;;13.82;9.30;;;18.90;97.40;;;18.40;90.85;101017.53;5008032;28;20139;-77
2021/07/09 01:42:45;;;;;;;12.75;9.93;;;18.90;97.50;;;18.39;90.84;101013.09;5008100;28;20559;-77
2021/07/09 01:45:12;;;;;;;15.00;10.20;;;18.90;97.50;;;18.39;90.95;101015.84;5005312;28;20133;-77
2021/07/09 01:47:41;;;;;;;12.77;10.30;;;18.90;97.50;;;18.40;90.98;101012.03;5008374;28;20072;-77
2021/07/09 01:50:09;;;;;;;16.83;10.45;;;18.90;97.50;;;18.40;90.98;101012.03;5008351;28;20042;-77
2021/07/09 01:52:37;;;;;;;13.82;10.05;;;18.90;97.50;;;18.38;91.22;101005.91;5008090;28;20669;-77
2021/07/09 01:55:06;;;;;;;13.88;9.18;;;18.90;97.50;;;18.38;91.11;101015.00;5008183;28;20144;-75
2021/07/09 01:57:35;;;;;;;16.00;9.80;;;18.80;97.50;;;18.36;91.12;101006.97;4990100;28;20131;-75
2021/07/09 02:00:09;;;;;;;13.43;9.50;;;18.80;97.60;;;18.35;91.36;100997.03;4990566;28;20073;-75
2021/07/09 02:02:37;;;;;;;17.98;9.80;;;18.80;97.60;;;18.34;91.34;101002.75;5008233;28;20398;-75
2021/07/09 02:05:09;;;;;;;13.70;9.93;;;18.80;97.60;;;18.33;91.29;100996.41;5008204;28;20051;-75
2021/07/09 02:07:38;;;;;;;12.05;9.40;;;18.80;97.50;;;18.34;91.38;100995.31;5007838;28;20100;-75
2021/07/09 02:10:08;;;;;;;11.45;9.13;;;18.80;97.70;;;18.35;91.43;100994.28;5008233;28;20673;-75
2021/07/09 02:12:37;;;;;;;15.40;10.20;;;18.80;97.60;;;18.35;91.11;100993.41;5007891;28;20112;-75
2021/07/09 02:15:09;;;;;;;13.30;9.57;;;18.80;97.70;;;18.34;91.06;100981.53;5007987;28;20073;-75
2021/07/09 02:17:36;;;;;;;13.57;9.77;;;18.80;97.70;;;18.32;91.42;100982.84;5010166;28;20046;-75
2021/07/09 02:20:07;;;;;;;14.50;10.40;;;18.80;97.70;;;18.31;91.34;100987.50;5011577;28;20052;-75
2021/07/09 02:22:34;;;;;;;19.23;10.65;;;18.80;97.80;;;18.31;91.36;100992.16;5011743;28;20077;-75
2021/07/09 02:25:05;;;;;;;12.30;9.80;;;18.80;97.80;;;18.31;91.04;100998.50;5011579;28;20414;-75
2021/07/09 02:27:34;;;;;;;14.25;10.07;;;18.80;97.80;;;18.32;91.21;100994.69;5011673;28;20049;-75
2021/07/09 02:30:04;;;;;;;14.07;10.52;;;18.80;97.80;;;18.30;91.27;100990.50;5039583;23;20057;-76
2021/07/09 02:32:31;;;;;;;12.50;9.67;;;18.80;97.80;;;18.32;91.29;100999.38;5029782;28;20494;-76
2021/07/09 02:34:58;;;;;;;15.07;10.98;;;18.80;97.80;;;18.29;91.45;100999.81;5031204;28;20136;-76
2021/07/09 02:37:26;;;;;;;13.93;10.70;;;18.80;97.80;;;18.28;91.50;101004.50;5030735;28;20443;-76
2021/07/09 02:39:53;;;;;;;16.58;11.18;;;18.80;98.00;;;18.28;91.50;101001.72;5015647;28;20054;-76
2021/07/09 02:42:20;;;;;;;13.75;10.40;;;18.80;98.00;;;18.28;91.56;101004.50;5011012;28;20566;-76
2021/07/09 02:44:47;;;;;;;13.80;10.02;;;18.80;98.00;;;18.29;91.27;101003.41;5011075;28;20129;-76
2021/07/09 02:47:16;;;;;;;15.55;11.52;;;18.80;98.10;;;18.27;91.50;101001.94;5010705;28;20750;-76
2021/07/09 02:49:43;;;;;;;15.90;11.70;;;18.80;98.00;;;18.29;91.44;101010.84;5011067;28;20046;-76
2021/07/09 02:52:11;;;;;;;15.90;10.82;;;18.50;97.80;;;18.27;91.51;101002.78;5011108;28;20100;-76
2021/07/09 02:54:38;;;;;;;16.30;12.00;;;18.80;98.00;;;18.26;91.70;101001.13;5010829;28;20120;-76
2021/07/09 02:57:06;;;;;;;15.77;12.00;;;18.80;98.00;;;18.25;91.66;101002.16;5010726;28;20133;-76
2021/07/09 02:59:33;;;;;;;15.70;11.02;;;18.80;98.10;;;18.26;91.66;101005.75;5010585;28;20085;-76
2021/07/09 03:02:00;;;;;;;19.42;11.95;;;18.80;98.10;;;18.26;91.76;100994.75;5010784;28;20052;-76
2021/07/09 03:04:29;;;;;;;18.05;12.40;;;18.80;98.20;;;18.25;91.71;100999.41;5011016;28;20548;-76
2021/07/09 03:06:56;;;;;;;19.13;12.10;;;18.80;98.10;;;18.26;91.63;101000.25;5009187;28;20085;-76
2021/07/09 03:09:23;;;;;;;17.25;12.02;;;18.80;98.20;;;18.26;91.48;101001.13;5010719;28;20112;-76
2021/07/09 03:11:50;;;;;;;16.55;12.23;;;18.80;98.10;;;18.25;91.71;101002.16;5010544;28;20044;-76
2021/07/09 03:14:18;;;;;;;17.67;12.00;;;18.70;98.20;;;18.26;91.83;101000.25;5010556;28;20042;-76
2021/07/09 03:16:45;;;;;;;20.35;12.63;;;18.70;98.20;;;18.27;91.87;101001.94;5010171;28;20129;-76
2021/07/09 03:19:12;;;;;;;18.85;12.40;;;18.80;98.40;;;18.26;91.83;100997.50;5010476;28;20405;-76
2021/07/09 03:21:41;;;;;;;17.45;12.90;;;18.80;98.40;;;18.25;91.94;100991.16;5010313;28;20088;-76
2021/07/09 03:24:08;;;;;;;17.85;12.63;;;18.80;98.40;;;18.26;91.73;100989.22;5010447;28;20477;-76
2021/07/09 03:26:35;;;;;;;16.55;12.07;;;18.80;98.30;;;18.25;91.91;100985.63;5010168;28;20049;-76
2021/07/09 03:29:03;;;;;;;18.58;12.75;;;18.80;98.50;;;18.24;92.12;100983.97;5015194;28;20041;-76
2021/07/09 03:31:33;;;;;;;16.30;11.98;;;18.80;98.40;;;18.24;91.95;100994.13;5030128;28;20067;-76
2021/07/09 03:34:00;;;;;;;17.83;12.77;;;18.80;98.50;;;18.24;92.11;100995.00;5030044;28;20072;-76
2021/07/09 03:36:29;;;;;;;17.50;13.05;;;18.80;98.40;;;18.23;92.32;100989.69;5029923;28;20053;-76
2021/07/09 03:39:00;;;;;;;19.75;12.75;;;18.80;98.60;;;18.22;92.48;100986.09;5011699;28;20798;-76
2021/07/09 03:41:27;;;;;;;;;;;18.80;98.70;;;18.23;92.30;100986.94;4991177;28;20157;-76
2021/07/09 03:43:54;;;;;;;20.88;13.40;;;18.80;98.80;;;18.21;92.61;100987.16;4990591;28;20029;-76
2021/07/09 03:46:22;;;;;;;22.30;14.20;;;18.70;98.80;;;18.19;92.45;100983.78;4990223;28;20129;-76
2021/07/09 03:48:49;;;;;;;18.77;12.82;;;18.80;98.80;;;18.21;92.60;100991.84;4973081;28;20054;-76
2021/07/09 03:51:16;;;;;;;21.38;14.27;;;18.80;98.80;;;18.20;92.39;100991.00;4990224;28;20042;-76
2021/07/09 03:53:44;;;;;;;22.60;15.02;;;18.80;98.80;;;18.22;92.59;100983.34;4990406;28;20125;-76
2021/07/09 03:56:12;;;;;;;21.30;14.77;;;18.80;98.60;;;18.23;92.55;100990.53;4989747;28;20275;-75
2021/07/09 03:58:40;;;;;;;20.77;15.38;;;18.80;98.80;;;18.22;92.69;100988.88;4989802;28;20471;-77
2021/07/09 04:01:07;;;;;;;21.58;15.20;;;18.80;98.80;;;18.20;93.14;100987.38;4990344;28;20101;-77
2021/07/09 04:03:34;;;;;;;23.92;14.85;;;18.80;99.00;;;18.22;92.84;100991.63;5000648;28;20127;-77
2021/07/09 04:06:01;;;;;;;24.42;15.73;;;18.80;99.00;;;18.22;92.67;100988.00;5009580;28;20323;-77
2021/07/09 04:08:29;;;;;;;22.23;15.95;;;18.80;98.90;;;18.22;92.67;100988.88;5009323;28;20139;-77
2021/07/09 04:10:56;;;;;;;22.00;16.00;;;18.80;98.90;;;18.22;92.85;100983.34;5009742;28;20084;-76
2021/07/09 04:13:24;;;;;;;24.95;16.42;;;18.80;98.90;;;18.22;92.86;100986.09;5009567;28;20116;-76
2021/07/09 04:15:52;;;;;;;23.95;15.75;;;18.80;99.00;;;18.22;92.85;100983.34;5009573;28;20125;-76
2021/07/09 04:18:19;;;;;;;26.98;16.95;;;18.80;99.00;;;18.22;92.98;100990.75;5009496;28;20128;-76
2021/07/09 04:20:46;;;;;;;28.63;17.38;;;18.80;98.90;;;18.21;93.39;100989.91;5009403;28;20060;-76
2021/07/09 04:23:13;;;;;;;23.13;17.65;;;18.80;99.00;;;18.23;93.16;100993.28;5009426;28;20124;-76
2021/07/09 04:25:41;;;;;;;25.58;18.23;;;18.80;99.00;;;18.23;93.45;100993.28;5009247;28;20584;-76
2021/07/09 04:28:08;;;;;;;23.50;17.60;;;18.80;99.00;;;18.23;93.33;100996.03;5007129;28;20100;-76
2021/07/09 04:30:37;;;;;;;25.50;19.08;;;18.90;99.20;;;18.24;93.35;100989.47;5007247;28;20061;-76
2021/07/09 04:33:04;;;;;;;25.73;18.95;;;18.90;99.10;;;18.25;93.42;100993.06;5007971;28;20136;-76
2021/07/09 04:35:31;;;;;;;24.40;18.92;;;18.90;99.20;;;18.25;93.56;100999.41;5008983;28;20077;-76
2021/07/09 04:37:59;;;;;;;28.58;19.38;;;18.90;99.20;;;18.25;93.72;100993.06;5009009;28;20088;-76
2021/07/09 04:40:26;;;;;;;24.90;19.02;;;18.90;99.30;;;18.25;93.56;101004.09;5008447;28;20041;-76
2021/07/09 04:42:53;;;;;;;26.05;19.48;;;18.90;99.30;;;18.25;93.87;100993.91;5009045;28;20038;-76
2021/07/09 04:45:20;;;;;;;28.77;18.77;;;18.90;99.30;;;18.26;94.06;101001.13;5009327;28;20599;-76
2021/07/09 04:47:49;;;;;;;27.73;19.35;;;18.90;99.50;;;18.26;94.05;100995.59;5008820;28;20046;-76
2021/07/09 04:50:16;;;;;;;27.15;18.85;;;18.90;99.50;;;18.28;93.88;101004.50;5009304;28;20073;-76
2021/07/09 04:52:44;;;;;;;28.42;18.05;;;19.00;99.50;;;18.28;94.08;101004.50;5009016;28;20042;-76
2021/07/09 04:55:13;;;;;;;25.17;18.23;;;19.00;99.50;;;18.28;94.29;101007.25;5009131;28;20056;-76
2021/07/09 04:57:41;;;;;;;27.27;18.02;;;19.00;99.50;;;18.27;94.28;101005.53;5008597;28;20456;-76
2021/07/09 05:00:10;;;;;;;25.23;18.45;;;19.00;99.50;;;18.27;94.56;101004.72;5008753;28;20465;-77
2021/07/09 05:02:38;;;;;;;25.38;17.80;;;19.00;99.50;;;18.26;94.71;101012.13;5009140;28;20046;-77
2021/07/09 05:05:09;;;;;;;26.27;19.50;;;19.00;99.50;;;18.26;94.82;101006.63;5008830;28;20040;-75
2021/07/09 05:07:36;;;;;;;28.20;19.27;;;19.00;99.50;;;18.28;95.00;101006.41;5008919;28;20502;-76
2021/07/09 05:10:05;;;;;;;27.52;20.02;;;19.00;99.50;;;18.28;94.89;101009.16;5008683;28;20080;-77
2021/07/09 05:12:33;;;;;;;28.35;20.02;;;19.00;99.50;;;18.28;95.02;101021.03;5008924;28;20049;-76
2021/07/09 05:15:00;;;;;;;29.20;22.10;;;19.00;99.50;;;18.27;94.97;101013.81;5008982;28;20046;-75
2021/07/09 05:17:27;;;;;;;30.98;23.05;;;19.00;99.40;;;18.28;95.15;101015.50;5008643;28;20050;-75
2021/07/09 05:19:55;;;;;;;31.30;22.23;;;19.10;99.60;;;18.28;95.20;101018.28;5009042;28;20134;-76
2021/07/09 05:22:24;;;;;;;34.60;25.63;;;19.10;99.60;;;18.30;95.45;101007.88;5008795;28;20042;-76
2021/07/09 05:24:53;;;;;;;38.10;27.27;;;19.10;99.60;;;18.30;95.27;101018.06;5009134;28;20056;-76
2021/07/09 05:27:21;;;;;;;41.30;29.35;;;19.10;99.50;;;18.32;95.21;101019.50;5008494;28;20038;-76
2021/07/09 05:29:48;;;;;;;47.08;33.15;;;19.10;99.40;;;18.33;95.25;101018.44;5014814;28;20076;-75
2021/07/09 05:32:21;;;;;;;40.40;31.05;;;19.10;99.30;;;18.33;95.15;101018.44;5028528;28;20195;-76
2021/07/09 05:34:48;;;;;;;46.67;33.28;;;19.10;99.30;;;18.33;95.05;101023.97;4991635;28;20049;-75
2021/07/09 05:37:16;;;;;;;42.65;31.48;;;19.20;99.10;;;18.34;95.34;101017.38;4990842;28;20141;-76
2021/07/09 05:39:45;;;;;;;41.20;30.42;;;19.20;99.20;;;18.36;95.15;101014.41;5002335;28;20100;-78
2021/07/09 05:42:12;;;;;;;40.58;30.63;;;19.20;99.00;;;18.36;95.94;101026.25;5008840;28;20050;-76
2021/07/09 05:44:40;;;;;;;37.88;29.17;;;19.30;99.10;;;18.36;95.52;101023.50;5008367;28;20068;-78
2021/07/09 05:47:07;;;;;;;39.60;30.02;;;19.30;98.90;;;18.38;95.50;101022.44;5008474;28;20074;-77
2021/07/09 05:49:34;;;;;;;36.90;27.95;;;19.30;98.80;;;18.37;95.81;101024.34;5008669;28;20666;-77
2021/07/09 05:52:02;;;;;;;38.53;28.73;;;19.30;98.70;;;18.38;95.59;101026.03;5010308;28;20060;-77
2021/07/09 05:54:29;;;;;;;45.80;29.42;;;19.40;98.70;;;18.42;95.86;101034.69;5012611;28;20534;-77
2021/07/09 05:56:58;;;;;;;38.55;27.90;;;19.40;98.50;;;18.42;96.10;101032.78;5012114;28;20042;-77
2021/07/09 05:59:25;;;;;;;37.63;28.27;;;19.40;98.40;;;18.44;95.66;101032.56;5012505;28;20099;-77
2021/07/09 06:01:53;;;;;;;38.15;26.85;;;19.50;98.40;;;18.46;95.64;101035.94;5012247;28;20130;-77
2021/07/09 06:04:20;;;;;;;37.63;29.20;;;19.40;98.10;;;18.44;95.93;101036.16;5012304;28;20121;-77
2021/07/09 06:06:48;;;;;;;40.47;28.92;;;19.50;98.20;;;18.46;95.84;101035.94;4994443;28;20042;-77
2021/07/09 06:09:15;;;;;;;38.15;28.38;;;19.50;98.00;;;18.47;95.71;101040.41;4994201;28;20049;-77
2021/07/09 06:11:43;;;;;;;40.75;27.63;;;19.50;98.10;;;18.47;95.77;101038.47;5012029;28;20096;-76
2021/07/09 06:14:12;;;;;;;40.17;28.55;;;19.50;98.00;;;18.48;95.66;101042.06;5011839;28;20057;-78
2021/07/09 06:16:39;;;;;;;39.60;26.65;;;19.50;98.00;;;18.48;95.54;101042.06;5011776;28;20453;-76
2021/07/09 06:19:07;;;;;;;39.10;27.63;;;19.50;98.00;;;18.50;95.52;101045.44;5007056;28;20129;-80
2021/07/09 06:21:34;;;;;;;38.53;27.67;;;19.50;98.10;;;18.51;95.32;101047.16;4999803;28;20125;-79
2021/07/09 06:24:01;;;;;;;37.13;27.40;;;19.50;98.10;;;18.52;95.20;101048.81;5000239;28;20050;-80
2021/07/09 06:26:28;;;;;;;40.00;28.23;;;19.50;98.00;;;18.50;95.38;101049.03;5008223;28;20056;-79
2021/07/09 06:28:56;;;;;;;39.45;26.63;;;19.50;98.10;;;18.51;95.46;101052.66;4993470;28;20057;-80
2021/07/09 06:31:25;;;;;;;36.60;27.40;;;19.50;98.10;;;18.51;95.23;101058.16;5012099;28;20045;-79
2021/07/09 06:33:53;;;;;;;38.50;27.48;;;19.50;97.90;;;18.50;95.16;101061.97;5020119;28;20049;-80
2021/07/09 06:36:20;;;;;;;37.45;26.48;;;19.50;97.80;;;18.52;94.84;101066.22;5011595;28;20506;-80
2021/07/09 06:38:48;;;;;;;38.85;28.23;;;19.50;97.80;;;18.54;95.02;101068.72;5031438;28;20132;-79
2021/07/09 06:41:16;;;;;;;37.75;27.42;;;19.50;97.80;;;18.54;94.98;101069.59;5030943;28;20065;-80
2021/07/09 06:43:43;;;;;;;38.38;28.08;;;19.50;97.80;;;18.55;95.27;101079.53;5030956;28;20050;-84
2021/07/09 06:46:11;;;;;;;37.13;26.85;;;19.50;98.10;;;18.55;95.34;101071.25;5031068;28;20034;-84
2021/07/09 06:48:40;;;;;;;40.38;29.40;;;19.50;98.00;;;18.58;95.03;101075.47;5030592;28;20095;-83
2021/07/09 06:51:08;;;;;;;36.22;26.95;;;19.60;97.90;;;18.59;94.97;101068.91;5031316;28;20056;-82
2021/07/09 06:53:35;;;;;;;38.08;27.50;;;19.60;97.70;;;18.61;95.01;101075.03;5030291;28;20034;-83
2021/07/09 06:56:02;;;;;;;41.53;27.42;;;19.60;97.50;;;18.62;94.92;101076.75;5031146;28;20060;-82
2021/07/09 06:58:30;;;;;;;38.42;28.25;;;19.70;97.40;;;18.63;95.06;101081.16;5031259;28;20049;-82
2021/07/09 07:00:58;;;;;;;38.60;27.58;;;19.70;97.20;;;18.64;95.12;101074.59;5030969;28;20037;-83
2021/07/09 07:03:25;;;;;;;37.83;27.58;;;19.80;97.00;;;18.67;95.07;101081.56;5030263;28;20498;-83
2021/07/09 07:05:54;;;;;;;39.03;27.20;;;19.90;96.90;;;18.69;95.30;101072.00;5029122;28;20127;-83
2021/07/09 07:08:23;;;;;;;37.92;26.77;;;20.00;96.80;;;18.71;95.67;101074.53;5010601;28;20049;-83
2021/07/09 07:10:51;;;;;;;37.75;24.95;;;20.00;96.50;;;18.73;95.56;101084.28;5010979;28;20395;-83
2021/07/09 07:13:19;;;;;;;37.15;26.25;;;20.10;96.20;;;18.75;95.57;101086.78;5011292;28;20096;-83
2021/07/09 07:15:46;;;;;;;36.53;24.95;;;20.10;95.80;;;18.76;94.94;101086.56;5010955;28;20118;-81
2021/07/09 07:18:14;;;;;;;37.00;24.52;;;20.10;95.50;;;18.76;95.21;101089.34;5010168;28;20078;-81
2021/07/09 07:20:44;;;;;;;35.35;23.63;;;20.10;95.50;;;18.78;94.77;101094.63;5010466;28;20077;-81
2021/07/09 07:23:17;;;;;;;33.15;22.25;;;20.10;95.10;;;18.79;94.19;101099.09;5008591;28;20884;-81
2021/07/09 07:25:45;;;;;;;33.65;23.65;;;20.10;94.90;;;18.80;94.08;101098.03;5009862;28;20049;-81
2021/07/09 07:28:14;;;;;;;32.70;23.48;;;20.00;94.80;;;18.81;94.38;101096.13;5009695;28;20037;-81
2021/07/09 07:30:42;;;;;;;33.13;24.20;;;20.10;95.30;;;18.82;94.54;101092.31;5010709;28;20042;-79
2021/07/09 07:33:10;;;;;;;37.00;24.00;;;20.10;95.40;;;18.82;94.43;101089.53;5010761;28;20046;-79
2021/07/09 07:35:38;;;;;;;35.92;23.63;;;20.10;95.00;;;18.84;93.98;101091.00;5010375;28;20425;-77
2021/07/09 07:38:07;;;;;;;35.63;24.75;;;20.20;94.50;;;18.85;93.92;101097.34;4994765;28;20046;-78
2021/07/09 07:40:37;;;;;;;33.47;24.48;;;20.20;94.60;;;18.88;93.88;101094.16;4990852;28;20137;-79
2021/07/09 07:43:05;;;;;;;37.35;24.02;;;20.30;94.40;;;18.89;93.56;101093.09;4990987;28;20074;-79
2021/07/09 07:45:33;;;;;;;35.90;25.83;;;20.30;94.30;;;18.90;93.49;101092.00;5010258;28;20042;-78
2021/07/09 07:48:01;;;;;;;35.88;25.88;;;20.30;94.00;;;18.92;93.68;101100.91;5004986;28;20471;-78
2021/07/09 07:50:28;;;;;;;41.67;25.90;;;20.30;94.30;;;18.93;93.65;101094.31;4990738;28;20125;-77
2021/07/09 07:52:56;;;;;;;37.40;25.55;;;20.30;93.80;;;18.95;93.22;101094.94;4990453;28;20097;-77
2021/07/09 07:55:23;;;;;;;43.45;30.95;;;20.40;93.60;;;18.97;93.13;101091.97;4990927;28;20085;-80
2021/07/09 07:57:52;;;;;;;47.63;33.20;;;20.40;93.50;;;18.98;92.95;101094.47;4990139;28;20049;-80
2021/07/09 08:00:20;;;;;;;45.33;33.22;;;20.50;92.30;;;19.00;92.59;101094.25;4990650;28;20145;-80
2021/07/09 08:02:47;;;;;;;43.47;31.30;;;20.50;92.00;;;19.02;92.23;101098.50;4990271;28;20077;-80
2021/07/09 08:05:16;;;;;;;48.55;32.35;;;20.60;91.80;;;19.02;92.14;101098.50;4990534;28;20078;-80
2021/07/09 08:07:43;;;;;;;44.38;31.75;;;20.70;91.70;;;19.06;91.86;101087.84;4990306;28;20050;-80
2021/07/09 08:10:11;;;;;;;44.17;30.88;;;20.80;91.30;;;19.07;92.88;101082.09;4991652;28;20144;-80
2021/07/09 08:12:39;;;;;;;43.25;30.05;;;20.90;91.80;;;19.09;92.47;101090.97;5010117;28;20049;-80
2021/07/09 08:15:09;;;;;;;42.80;30.30;;;21.00;91.10;;;19.13;92.40;101088.59;5009688;28;20069;-81
2021/07/09 08:17:36;;;;;;;40.97;30.63;;;21.00;90.70;;;19.16;92.49;101073.53;5010007;28;20464;-80
2021/07/09 08:20:06;;;;;;;44.28;31.38;;;21.10;90.90;;;19.21;92.77;101080.06;5009492;28;20480;-80
2021/07/09 08:22:36;;;;;;;44.78;31.40;;;21.20;91.00;;;19.26;93.05;101076.59;5009719;28;20536;-80
2021/07/09 08:25:05;;;;;;;41.55;31.50;;;21.40;90.90;;;19.31;92.86;101074.00;5009670;28;20453;-80
2021/07/09 08:27:32;;;;;;;46.08;31.88;;;21.50;89.80;;;19.33;92.98;101077.38;5009301;28;20104;-80
2021/07/09 08:29:59;;;;;;;43.83;31.52;;;21.50;90.00;;;19.37;93.51;101066.72;5026476;23;20109;-89
2021/07/09 08:32:28;;;;;;;37.50;28.67;;;21.50;90.50;;;19.42;93.16;101064.09;5029284;28;20050;-89
2021/07/09 08:34:56;;;;;;;39.53;26.40;;;21.60;90.00;;;19.44;93.02;101071.09;5036879;28;20041;-91
2021/07/09 08:37:23;;;;;;;33.83;24.95;;;21.70;89.70;;;19.47;92.44;101067.84;5041180;28;20045;-88
2021/07/09 08:39:51;;;;;;;34.70;24.67;;;21.70;88.70;;;19.52;92.30;101065.25;5021222;28;20083;-91
2021/07/09 08:42:19;;;;;;;32.47;24.15;;;21.80;88.70;;;19.56;91.73;101064.81;5004880;28;20045;-90
2021/07/09 08:44:46;;;;;;;35.95;24.90;;;21.90;87.80;;;19.60;91.25;101075.16;4998450;28;20062;-91
2021/07/09 08:47:14;;;;;;;34.95;22.10;;;22.00;85.30;;;19.63;90.96;101071.06;4993802;28;20090;-92
2021/07/09 08:49:43;;;;;;;32.72;21.13;;;22.00;87.00;;;19.68;91.79;101074.81;4984508;28;20499;-91
2021/07/09 08:52:10;;;;;;;33.17;21.38;;;22.10;87.60;;;19.72;91.19;101065.06;5008519;28;20557;-91
2021/07/09 08:54:39;;;;;;;28.13;18.92;;;22.30;86.60;;;19.78;91.74;101063.28;4986358;28;20053;-89
2021/07/09 08:57:08;;;;;;;33.72;21.10;;;22.40;86.30;;;19.80;88.61;101061.13;5002755;28;20063;-92
2021/07/09 08:59:35;;;;;;;27.45;18.75;;;22.40;84.00;;;19.84;88.58;101059.59;4998249;28;20119;-91
2021/07/09 09:02:03;;;;;;;25.75;17.90;;;22.40;84.00;;;19.95;91.84;101060.69;5004561;28;20050;-92
2021/07/09 09:04:33;;;;;;;28.75;18.15;;;22.50;86.30;;;20.03;94.15;101056.75;4982587;28;20054;-91
2021/07/09 09:07:09;;;;;;;28.25;18.23;;;22.60;86.90;;;20.07;91.19;101060.78;4980720;28;20092;-87
2021/07/09 09:09:38;;;;;;;25.02;17.73;;;22.80;84.80;;;20.08;90.52;101056.91;4979953;28;20112;-88
2021/07/09 09:12:10;;;;;;;29.65;17.15;;;22.80;84.80;;;20.12;89.94;101058.13;4999514;28;20063;-87
2021/07/09 09:14:40;;;;;;;28.60;16.63;;;22.80;84.40;;;20.14;88.77;101058.72;4999972;28;20125;-82
2021/07/09 09:17:31;;;;;;;21.05;14.38;;;22.80;83.30;;;20.16;86.63;101059.34;4997234;28;20038;-87
2021/07/09 09:20:14;;;;;;;22.70;14.68;;;22.90;82.50;;;20.20;86.53;101059.72;4999342;28;20526;-88
2021/07/09 09:23:02;;;;;;;24.65;14.23;;;22.90;82.20;;;20.26;86.44;101058.78;4998257;28;20120;-87
2021/07/09 09:25:32;;;;;;;18.65;11.10;;;22.90;82.20;;;20.30;85.55;101044.25;4997067;28;20125;-87
2021/07/09 09:28:06;;;;;;;17.13;11.18;;;23.00;81.50;;;20.33;85.71;101047.63;5002432;28;20101;-87
2021/07/09 09:30:35;;;;;;;14.20;9.60;;;23.00;81.40;;;20.35;86.00;101042.69;5000679;28;20081;-87
2021/07/09 09:33:06;;;;;;;16.52;9.23;;;23.00;81.50;;;20.38;83.79;101045.00;5002633;28;20878;-87
2021/07/09 09:35:37;;;;;;;18.60;12.40;;;23.00;80.80;;;20.39;84.05;101046.66;5002470;28;20054;-87
2021/07/09 09:38:08;;;;;;;;;;;23.00;77.90;;;20.35;81.66;101043.53;4984236;28;20054;-88
2021/07/09 09:40:38;;;;;;;17.35;11.63;;;22.90;78.30;;;20.37;80.36;101043.28;5003600;28;19927;-85
2021/07/09 09:43:14;;;;;;;19.02;10.38;;;22.90;78.70;;;20.41;80.75;101041.75;5002587;28;20520;-85
2021/07/09 09:45:43;;;;;;;13.35;8.70;;;22.90;78.50;;;20.42;79.38;101041.50;5000421;28;20454;-86
2021/07/09 09:48:13;;;;;;;15.07;8.02;;;23.00;76.60;;;20.43;80.42;101037.69;5003815;28;20077;-87
2021/07/09 09:50:48;;;;;;;12.32;7.90;;;22.90;77.20;;;20.43;79.07;101037.69;5001108;28;20038;-85
2021/07/09 09:53:18;;;;;;;14.57;7.97;;;22.90;77.40;;;20.46;80.64;101042.72;4983465;28;20077;-84
2021/07/09 09:55:45;;;;;;;10.20;7.13;;;22.90;77.60;;;20.47;79.19;101033.34;5001869;28;20518;-86
2021/07/09 09:58:15;;;;;;;18.92;7.05;;;22.90;78.10;;;20.53;81.07;101039.84;4992792;28;20116;-86
2021/07/09 10:00:45;;;;;;;12.48;6.85;;;22.90;79.40;;;20.55;79.25;101025.78;5013543;28;20045;-86
2021/07/09 10:03:13;;;;;;;12.75;6.53;;;23.00;77.90;;;20.62;79.60;101032.94;5028986;28;20506;-87
2021/07/09 10:05:54;;;;;;;11.23;6.20;;;23.00;78.00;;;20.68;79.07;101034.72;5017387;28;20129;-86
2021/07/09 10:08:29;;;;;;;15.63;7.45;;;23.00;78.80;;;20.67;80.34;101035.78;5004542;28;20520;-87